Time;durP1;ratioP1;P1;durP2;ratioP2;P2;SDS_P1;SDS_P2;PMS_P1;PMS_P2;Temp;Humidity;BMP_temperature;BMP_pressure;BME280_temperature;BME280_humidity;BME280_pressure;Samples;Min_cycle;Max_cycle;Signal;HPM_P1;HPM_P2
2022/10/17 00:00:41;;;;;;;;;;;20.20;71.10;;;;;;5062715;28;947;-69
2022/10/17 00:03:07;;;;;;;;;;;20.10;71.10;;;;;;5059984;28;1890;-69
2022/10/17 00:05:33;;;;;;;;;;;20.10;71.10;;;;;;5062521;28;1351;-68
2022/10/17 00:07:58;;;;;;;;;;;20.20;71.10;;;;;;5059968;28;815;-68
2022/10/17 00:10:23;;;;;;;;;;;20.10;71.10;;;;;;5060871;28;827;-68
2022/10/17 00:12:49;;;;;;;;;;;20.20;71.10;;;;;;5046462;28;1314;-70
2022/10/17 00:15:15;;;;;;;;;;;20.10;71.10;;;;;;5061533;28;1282;-69
2022/10/17 00:17:40;;;;;;;;;;;20.20;71.10;;;;;;5063181;28;1310;-69
2022/10/17 00:20:06;;;;;;;;;;;20.10;71.20;;;;;;5062111;28;887;-69
2022/10/17 00:22:32;;;;;;;;;;;20.10;71.10;;;;;;5058867;28;1969;-69
2022/10/17 00:24:57;;;;;;;;;;;20.10;71.10;;;;;;5060172;28;1283;-69
2022/10/17 00:27:22;;;;;;;;;;;20.10;71.10;;;;;;5061927;28;811;-69
2022/10/17 00:29:48;;;;;;;;;;;20.10;71.10;;;;;;5063996;28;893;-69
2022/10/17 00:32:14;;;;;;;;;;;20.10;71.10;;;;;;5059892;28;1369;-69
2022/10/17 00:34:39;;;;;;;;;;;20.10;71.10;;;;;;5056258;28;1267;-69
2022/10/17 00:37:05;;;;;;;;;;;20.10;71.20;;;;;;5059315;28;954;-68
2022/10/17 00:39:30;;;;;;;;;;;20.20;71.20;;;;;;5060275;28;1195;-68
2022/10/17 00:41:56;;;;;;;;;;;20.10;71.20;;;;;;5060479;28;1955;-69
2022/10/17 00:44:30;;;;;;;;;;;20.10;71.20;;;;;;5068116;28;1426;-69
2022/10/17 00:46:55;;;;;;;;;;;20.10;71.20;;;;;;5061497;28;887;-69
2022/10/17 00:49:21;;;;;;;;;;;20.10;71.20;;;;;;5058386;28;895;-69
2022/10/17 00:51:51;;;;;;;;;;;20.20;71.20;;;;;;5060912;28;895;-69
2022/10/17 00:54:18;;;;;;;;;;;20.10;71.20;;;;;;5057610;28;993;-69
2022/10/17 00:56:44;;;;;;;;;;;20.10;71.20;;;;;;5056744;28;1235;-69
2022/10/17 00:59:09;;;;;;;;;;;20.10;71.20;;;;;;5059089;28;963;-69
2022/10/17 01:01:35;;;;;;;;;;;20.10;71.20;;;;;;5062945;28;1953;-70
2022/10/17 01:04:00;;;;;;;;;;;20.10;71.20;;;;;;5058407;28;1010;-70
2022/10/17 01:06:26;;;;;;;;;;;20.10;71.20;;;;;;5058577;28;1215;-70
2022/10/17 01:08:51;;;;;;;;;;;20.10;71.20;;;;;;5059292;28;870;-70
2022/10/17 01:11:23;;;;;;;;;;;20.10;71.20;;;;;;5056772;28;871;-69
2022/10/17 01:13:50;;;;;;;;;;;20.10;71.20;;;;;;5058203;28;946;-68
2022/10/17 01:16:35;;;;;;;;;;;20.10;71.20;;;;;;5060426;28;1286;-68
2022/10/17 01:19:02;;;;;;;;;;;20.10;71.30;;;;;;5061745;28;1277;-69
2022/10/17 01:21:30;;;;;;;;;;;20.10;71.20;;;;;;5060394;28;1929;-69
2022/10/17 01:24:07;;;;;;;;;;;20.10;71.20;;;;;;5060153;28;1179;-68
2022/10/17 01:26:51;;;;;;;;;;;20.10;72.00;;;;;;5058613;28;1449;-68
2022/10/17 01:29:29;;;;;;;;;;;20.10;71.30;;;;;;5056922;28;962;-68
2022/10/17 01:31:58;;;;;;;;;;;20.10;71.20;;;;;;5061911;28;1384;-69
2022/10/17 01:34:27;;;;;;;;;;;20.10;71.30;;;;;;5060042;28;886;-69
2022/10/17 01:37:05;;;;;;;;;;;20.10;71.20;;;;;;5058788;28;911;-69
2022/10/17 01:39:40;;;;;;;;;;;20.10;71.30;;;;;;5060186;28;1014;-69
2022/10/17 01:42:17;;;;;;;;;;;20.10;71.30;;;;;;5055484;28;1902;-69
2022/10/17 01:44:43;;;;;;;;;;;20.10;71.30;;;;;;5058116;28;1292;-69
2022/10/17 01:47:09;;;;;;;;;;;20.10;71.30;;;;;;5056007;28;4455;-68
2022/10/17 01:49:35;;;;;;;;;;;20.10;71.30;;;;;;5051387;28;5406;-68
2022/10/17 01:52:05;;;;;;;;;;;20.10;71.30;;;;;;5060108;28;931;-69
2022/10/17 01:54:31;;;;;;;;;;;20.10;71.30;;;;;;5056708;28;1321;-69
2022/10/17 01:56:57;;;;;;;;;;;20.20;71.30;;;;;;5058200;28;978;-68
2022/10/17 01:59:24;;;;;;;;;;;20.10;71.30;;;;;;5059190;28;835;-69
2022/10/17 02:01:50;;;;;;;;;;;20.10;71.30;;;;;;5060848;28;2357;-69
2022/10/17 02:04:16;;;;;;;;;;;20.10;71.30;;;;;;5071421;28;1345;-69
2022/10/17 02:06:41;;;;;;;;;;;20.10;71.30;;;;;;5057282;28;1254;-69
2022/10/17 02:09:23;;;;;;;;;;;20.10;71.30;;;;;;5049039;28;4777;-68
2022/10/17 02:12:12;;;;;;;;;;;20.10;71.30;;;;;;5054392;28;4639;-70
2022/10/17 02:14:40;;;;;;;;;;;20.10;71.30;;;;;;5048850;28;1867;-70
2022/10/17 02:17:12;;;;;;;;;;;20.10;71.30;;;;;;5060855;28;1042;-70
2022/10/17 02:19:43;;;;;;;;;;;20.10;71.30;;;;;;5061494;28;1594;-69
2022/10/17 02:22:16;;;;;;;;;;;20.10;71.30;;;;;;5058011;28;1976;-69
2022/10/17 02:24:47;;;;;;;;;;;20.10;71.30;;;;;;5058037;28;1296;-69
2022/10/17 02:27:21;;;;;;;;;;;20.10;71.40;;;;;;5059031;28;1988;-70
2022/10/17 02:29:48;;;;;;;;;;;20.10;71.30;;;;;;5058372;28;1355;-70
2022/10/17 02:32:16;;;;;;;;;;;20.20;71.40;;;;;;5058863;28;1402;-69
2022/10/17 02:34:51;;;;;;;;;;;20.20;71.40;;;;;;5056619;28;2114;-69
2022/10/17 02:37:18;;;;;;;;;;;20.10;71.30;;;;;;5045131;28;1322;-70
2022/10/17 02:39:43;;;;;;;;;;;20.10;71.30;;;;;;5055779;28;1750;-70
2022/10/17 02:42:09;;;;;;;;;;;20.10;71.30;;;;;;5058634;28;1925;-70
2022/10/17 02:44:36;;;;;;;;;;;20.10;71.40;;;;;;5059080;28;1503;-68
2022/10/17 02:47:18;;;;;;;;;;;20.10;71.40;;;;;;5062456;28;1320;-69
2022/10/17 02:49:44;;;;;;;;;;;20.10;71.40;;;;;;5060085;28;1836;-69
2022/10/17 02:52:11;;;;;;;;;;;20.10;71.40;;;;;;5059055;28;1438;-69
2022/10/17 02:54:47;;;;;;;;;;;20.10;71.40;;;;;;5058296;28;1292;-68
2022/10/17 02:57:15;;;;;;;;;;;20.10;71.40;;;;;;5050195;28;1602;-68
2022/10/17 02:59:40;;;;;;;;;;;20.10;71.40;;;;;;5056681;28;970;-69
2022/10/17 03:02:06;;;;;;;;;;;20.10;71.30;;;;;;5059296;28;1959;-68
2022/10/17 03:04:31;;;;;;;;;;;20.10;71.40;;;;;;5051744;28;1250;-68
2022/10/17 03:06:57;;;;;;;;;;;20.10;71.40;;;;;;5058656;28;914;-68
2022/10/17 03:09:22;;;;;;;;;;;20.10;71.40;;;;;;5058589;28;941;-68
2022/10/17 03:11:48;;;;;;;;;;;20.10;71.40;;;;;;5054478;28;946;-68
2022/10/17 03:14:13;;;;;;;;;;;20.10;72.10;;;;;;5053221;28;960;-68
2022/10/17 03:16:39;;;;;;;;;;;20.10;71.40;;;;;;5053716;28;1351;-68
2022/10/17 03:19:04;;;;;;;;;;;20.10;71.40;;;;;;5060481;28;1251;-68
2022/10/17 03:21:30;;;;;;;;;;;20.10;71.40;;;;;;5059151;28;1995;-68
2022/10/17 03:23:55;;;;;;;;;;;20.10;71.40;;;;;;5062188;28;904;-69
2022/10/17 03:26:20;;;;;;;;;;;20.10;71.40;;;;;;5063439;28;1243;-68
2022/10/17 03:28:46;;;;;;;;;;;20.10;71.40;;;;;;5066983;28;872;-68
2022/10/17 03:31:12;;;;;;;;;;;20.10;71.40;;;;;;5063861;28;1420;-68
2022/10/17 03:33:37;;;;;;;;;;;20.10;71.40;;;;;;5061384;28;1201;-68
2022/10/17 03:36:07;;;;;;;;;;;20.10;71.40;;;;;;5060720;28;1280;-68
2022/10/17 03:38:32;;;;;;;;;;;20.10;71.40;;;;;;5059112;28;875;-68
2022/10/17 03:40:58;;;;;;;;;;;20.10;71.40;;;;;;5064972;28;794;-68
2022/10/17 03:43:23;;;;;;;;;;;20.10;71.40;;;;;;5061208;28;1935;-68
2022/10/17 03:45:49;;;;;;;;;;;20.10;71.50;;;;;;5057834;28;1328;-68
2022/10/17 03:48:14;;;;;;;;;;;20.10;71.40;;;;;;5063773;28;884;-68
2022/10/17 03:50:40;;;;;;;;;;;20.10;71.40;;;;;;5060401;28;816;-68
2022/10/17 03:53:05;;;;;;;;;;;20.10;71.40;;;;;;5059959;28;831;-68
2022/10/17 03:55:30;;;;;;;;;;;20.10;71.40;;;;;;5066045;28;1352;-68
2022/10/17 03:57:56;;;;;;;;;;;20.10;71.40;;;;;;5063876;28;949;-68
2022/10/17 04:00:21;;;;;;;;;;;20.10;71.40;;;;;;5062083;28;898;-68
2022/10/17 04:02:47;;;;;;;;;;;20.10;71.40;;;;;;5060265;28;1902;-68
2022/10/17 04:05:12;;;;;;;;;;;20.10;71.40;;;;;;5059399;28;1250;-68
2022/10/17 04:07:38;;;;;;;;;;;20.10;71.40;;;;;;5060608;28;878;-68
2022/10/17 04:10:03;;;;;;;;;;;20.10;71.40;;;;;;5060880;28;779;-69
2022/10/17 04:12:29;;;;;;;;;;;20.10;71.40;;;;;;5060544;28;837;-69
2022/10/17 04:14:54;;;;;;;;;;;20.10;71.50;;;;;;5058753;28;1341;-68
2022/10/17 04:17:20;;;;;;;;;;;20.10;71.50;;;;;;5062881;28;1288;-69
2022/10/17 04:19:45;;;;;;;;;;;20.10;71.40;;;;;;5064734;28;1376;-68
2022/10/17 04:22:11;;;;;;;;;;;20.10;71.50;;;;;;5063178;28;1898;-68
2022/10/17 04:24:36;;;;;;;;;;;20.10;71.50;;;;;;5062613;28;1294;-68
2022/10/17 04:27:01;;;;;;;;;;;20.10;71.50;;;;;;5061438;28;810;-68
2022/10/17 04:29:27;;;;;;;;;;;20.10;71.50;;;;;;5060855;28;832;-69
2022/10/17 04:31:52;;;;;;;;;;;20.10;71.50;;;;;;5059427;28;1423;-68
2022/10/17 04:34:18;;;;;;;;;;;20.10;71.50;;;;;;5058321;28;852;-68
2022/10/17 04:36:43;;;;;;;;;;;20.10;71.50;;;;;;5057055;28;1213;-69
2022/10/17 04:39:09;;;;;;;;;;;20.10;71.50;;;;;;5058232;28;906;-68
2022/10/17 04:41:34;;;;;;;;;;;20.10;71.50;;;;;;5060426;28;1997;-68
2022/10/17 04:43:59;;;;;;;;;;;20.10;71.50;;;;;;5060686;28;934;-68
2022/10/17 04:46:25;;;;;;;;;;;20.10;71.50;;;;;;5061054;28;2476;-68
2022/10/17 04:48:50;;;;;;;;;;;20.10;71.50;;;;;;5061649;28;1831;-68
2022/10/17 04:51:16;;;;;;;;;;;20.10;71.50;;;;;;5061538;28;1381;-68
2022/10/17 04:53:42;;;;;;;;;;;20.10;71.50;;;;;;5059408;28;1483;-68
2022/10/17 04:56:08;;;;;;;;;;;20.10;71.50;;;;;;5057621;28;1362;-68
2022/10/17 04:58:34;;;;;;;;;;;20.10;71.50;;;;;;5057892;28;919;-68
2022/10/17 05:01:02;;;;;;;;;;;20.10;71.50;;;;;;5062278;28;877;-68
2022/10/17 05:03:28;;;;;;;;;;;20.10;71.50;;;;;;5061185;28;2005;-68
2022/10/17 05:05:53;;;;;;;;;;;20.10;71.50;;;;;;5057204;28;1331;-68
2022/10/17 05:08:19;;;;;;;;;;;20.10;71.50;;;;;;5060720;28;1737;-68
2022/10/17 05:10:47;;;;;;;;;;;20.10;71.60;;;;;;5061155;28;950;-68
2022/10/17 05:13:12;;;;;;;;;;;20.10;71.60;;;;;;5062414;28;922;-68
2022/10/17 05:15:38;;;;;;;;;;;20.10;71.50;;;;;;5056027;28;1326;-68
2022/10/17 05:18:03;;;;;;;;;;;20.10;71.50;;;;;;5066957;28;1228;-68
2022/10/17 05:20:29;;;;;;;;;;;20.10;71.50;;;;;;5061019;28;942;-68
2022/10/17 05:22:54;;;;;;;;;;;20.10;71.50;;;;;;5061309;28;1874;-68
2022/10/17 05:25:20;;;;;;;;;;;20.10;71.50;;;;;;5056609;28;1266;-68
2022/10/17 05:27:45;;;;;;;;;;;20.10;71.50;;;;;;5057772;28;961;-68
2022/10/17 05:30:11;;;;;;;;;;;20.20;71.60;;;;;;5058578;28;954;-68
2022/10/17 05:32:36;;;;;;;;;;;20.10;71.60;;;;;;5056872;28;1450;-68
2022/10/17 05:35:03;;;;;;;;;;;20.10;71.50;;;;;;5063151;28;1342;-68
2022/10/17 05:37:28;;;;;;;;;;;20.10;71.60;;;;;;5059751;28;1656;-68
2022/10/17 05:39:54;;;;;;;;;;;20.10;71.50;;;;;;5056674;28;890;-68
2022/10/17 05:42:19;;;;;;;;;;;20.10;71.50;;;;;;5059047;28;1910;-68
2022/10/17 05:44:45;;;;;;;;;;;20.10;71.60;;;;;;5059598;28;1264;-68
2022/10/17 05:47:10;;;;;;;;;;;20.10;71.60;;;;;;5059441;28;815;-68
2022/10/17 05:49:36;;;;;;;;;;;20.10;71.60;;;;;;5057164;28;884;-68
2022/10/17 05:52:01;;;;;;;;;;;20.10;71.60;;;;;;5059022;28;1014;-68
2022/10/17 05:54:26;;;;;;;;;;;20.10;71.60;;;;;;5055403;28;927;-68
2022/10/17 05:56:52;;;;;;;;;;;20.20;71.60;;;;;;5055838;28;1589;-70
2022/10/17 05:59:18;;;;;;;;;;;20.10;71.60;;;;;;5060442;28;861;-68
2022/10/17 06:01:43;;;;;;;;;;;20.10;71.60;;;;;;5058174;28;1906;-68
2022/10/17 06:04:09;;;;;;;;;;;20.10;71.60;;;;;;5062676;28;915;-68
2022/10/17 06:06:37;;;;;;;;;;;20.10;71.60;;;;;;5059173;28;1342;-68
2022/10/17 06:09:03;;;;;;;;;;;20.10;71.60;;;;;;5064009;28;845;-68
2022/10/17 06:11:28;;;;;;;;;;;20.10;71.60;;;;;;5062574;28;942;-68
2022/10/17 06:13:54;;;;;;;;;;;20.10;71.60;;;;;;5056033;28;1045;-68
2022/10/17 06:16:19;;;;;;;;;;;20.10;71.60;;;;;;5056976;28;1342;-68
2022/10/17 06:18:45;;;;;;;;;;;20.10;71.60;;;;;;5058586;28;1344;-70
2022/10/17 06:21:10;;;;;;;;;;;20.10;71.60;;;;;;5059064;28;907;-68
2022/10/17 06:23:36;;;;;;;;;;;20.10;71.60;;;;;;5057580;28;1961;-68
2022/10/17 06:26:02;;;;;;;;;;;20.10;71.60;;;;;;5058773;28;1367;-68
2022/10/17 06:28:27;;;;;;;;;;;20.10;71.60;;;;;;5055349;28;919;-68
2022/10/17 06:30:53;;;;;;;;;;;20.10;71.60;;;;;;5064579;28;1274;-68
2022/10/17 06:33:19;;;;;;;;;;;20.10;71.60;;;;;;5058300;28;2359;-68
2022/10/17 06:35:51;;;;;;;;;;;20.10;71.60;;;;;;5058851;28;1382;-68
2022/10/17 06:38:17;;;;;;;;;;;20.10;71.60;;;;;;5057876;28;1446;-68
2022/10/17 06:40:42;;;;;;;;;;;20.10;71.60;;;;;;5056989;28;1224;-68
2022/10/17 06:43:08;;;;;;;;;;;20.10;71.70;;;;;;5058402;28;1902;-68
2022/10/17 06:45:33;;;;;;;;;;;20.10;71.60;;;;;;5056781;28;1817;-68
2022/10/17 06:48:00;;;;;;;;;;;20.10;71.60;;;;;;5057352;28;884;-68
2022/10/17 06:50:26;;;;;;;;;;;20.10;71.60;;;;;;5060849;28;1085;-68
2022/10/17 06:52:51;;;;;;;;;;;20.10;71.60;;;;;;5057261;28;821;-68
2022/10/17 06:55:16;;;;;;;;;;;20.10;71.60;;;;;;5058200;28;1276;-68
2022/10/17 06:57:42;;;;;;;;;;;20.10;71.60;;;;;;5056313;28;1033;-68
2022/10/17 07:00:08;;;;;;;;;;;20.10;71.50;;;;;;5060238;28;832;-68
2022/10/17 07:02:33;;;;;;;;;;;20.10;71.60;;;;;;5059731;28;1957;-68
2022/10/17 07:04:59;;;;;;;;;;;20.10;71.60;;;;;;5054964;28;1330;-68
2022/10/17 07:07:24;;;;;;;;;;;20.10;71.60;;;;;;5056744;28;999;-68
2022/10/17 07:09:50;;;;;;;;;;;20.10;71.60;;;;;;5056388;28;1060;-68
2022/10/17 07:12:15;;;;;;;;;;;20.10;71.60;;;;;;5059368;28;1049;-68
2022/10/17 07:14:41;;;;;;;;;;;20.10;71.60;;;;;;5057350;28;1346;-68
2022/10/17 07:17:06;;;;;;;;;;;20.10;71.60;;;;;;5055334;28;821;-68
2022/10/17 07:19:31;;;;;;;;;;;20.10;71.60;;;;;;5057078;28;1454;-68
2022/10/17 07:21:57;;;;;;;;;;;20.10;71.50;;;;;;5059670;28;1898;-69
2022/10/17 07:24:22;;;;;;;;;;;20.10;71.60;;;;;;5058471;28;851;-68
2022/10/17 07:26:48;;;;;;;;;;;20.10;71.60;;;;;;5053540;28;1339;-68
2022/10/17 07:29:13;;;;;;;;;;;20.10;71.60;;;;;;5055940;28;1220;-68
2022/10/17 07:31:39;;;;;;;;;;;20.10;71.60;;;;;;5057030;28;1454;-68
2022/10/17 07:34:04;;;;;;;;;;;20.20;71.70;;;;;;5055396;28;1905;-68
2022/10/17 07:36:29;;;;;;;;;;;20.10;71.60;;;;;;5058515;28;1403;-68
2022/10/17 07:38:55;;;;;;;;;;;20.10;71.60;;;;;;5057636;28;1338;-68
2022/10/17 07:41:20;;;;;;;;;;;20.10;71.60;;;;;;5056565;28;1267;-67
2022/10/17 07:43:46;;;;;;;;;;;20.10;71.60;;;;;;5057273;28;1971;-67
2022/10/17 07:46:11;;;;;;;;;;;20.10;71.60;;;;;;5058315;28;1297;-69
2022/10/17 07:48:38;;;;;;;;;;;20.10;71.60;;;;;;5055959;28;863;-68
2022/10/17 07:51:04;;;;;;;;;;;20.10;71.60;;;;;;5058727;28;993;-67
2022/10/17 07:53:30;;;;;;;;;;;20.10;71.60;;;;;;5057323;28;979;-68
2022/10/17 07:55:55;;;;;;;;;;;20.10;71.60;;;;;;5060092;28;1329;-68
2022/10/17 07:58:21;;;;;;;;;;;20.10;71.60;;;;;;5058781;28;863;-68
2022/10/17 08:00:47;;;;;;;;;;;20.10;71.60;;;;;;5059943;28;887;-68
2022/10/17 08:03:13;;;;;;;;;;;20.10;71.60;;;;;;5057212;28;1969;-68
2022/10/17 08:05:38;;;;;;;;;;;20.10;71.60;;;;;;5059375;28;1347;-68
2022/10/17 08:08:04;;;;;;;;;;;20.10;71.60;;;;;;5060628;28;887;-68
2022/10/17 08:10:29;;;;;;;;;;;20.10;71.60;;;;;;5066003;28;884;-67
2022/10/17 08:12:55;;;;;;;;;;;20.10;71.60;;;;;;5060259;28;895;-68
2022/10/17 08:15:20;;;;;;;;;;;20.10;71.60;;;;;;5060753;28;1266;-67
2022/10/17 08:17:46;;;;;;;;;;;20.10;71.60;;;;;;5059256;28;1282;-67
2022/10/17 08:20:11;;;;;;;;;;;20.10;71.60;;;;;;5066987;28;1443;-67
2022/10/17 08:22:37;;;;;;;;;;;20.10;71.60;;;;;;5060722;28;1957;-67
2022/10/17 08:25:02;;;;;;;;;;;20.20;72.00;;;;;;5064281;28;1357;-68
2022/10/17 08:27:28;;;;;;;;;;;20.10;71.90;;;;;;5059861;28;1010;-67
2022/10/17 08:29:53;;;;;;;;;;;20.20;71.80;;;;;;5056998;28;1006;-69
2022/10/17 08:32:19;;;;;;;;;;;20.20;71.70;;;;;;5062540;28;1843;-68
2022/10/17 08:34:45;;;;;;;;;;;20.20;71.80;;;;;;5060779;28;1342;-68
2022/10/17 08:37:12;;;;;;;;;;;20.20;71.80;;;;;;5063790;28;875;-68
2022/10/17 08:39:38;;;;;;;;;;;20.20;71.80;;;;;;5068704;28;1171;-68
2022/10/17 08:42:09;;;;;;;;;;;20.20;71.90;;;;;;5063173;28;1970;-68
2022/10/17 08:44:47;;;;;;;;;;;20.20;71.80;;;;;;5055562;28;1327;-69
2022/10/17 08:47:14;;;;;;;;;;;20.20;71.90;;;;;;5057623;28;1068;-68
2022/10/17 08:49:46;;;;;;;;;;;20.20;71.80;;;;;;5059455;28;907;-68
2022/10/17 08:52:26;;;;;;;;;;;20.20;71.80;;;;;;5057224;28;1296;-68
2022/10/17 08:54:51;;;;;;;;;;;20.20;71.90;;;;;;5057947;28;1342;-68
2022/10/17 08:57:17;;;;;;;;;;;20.20;71.80;;;;;;5061524;28;955;-67
2022/10/17 08:59:49;;;;;;;;;;;20.20;71.80;;;;;;5057344;28;813;-68
2022/10/17 09:02:33;;;;;;;;;;;20.20;71.80;;;;;;5058667;28;1906;-68
2022/10/17 09:05:07;;;;;;;;;;;20.20;71.90;;;;;;5059139;28;1251;-68
2022/10/17 09:07:38;;;;;;;;;;;20.20;71.90;;;;;;5062232;28;1022;-67
2022/10/17 09:10:04;;;;;;;;;;;20.20;71.90;;;;;;5057027;28;842;-68
2022/10/17 09:12:39;;;;;;;;;;;20.20;71.90;;;;;;5058927;28;878;-68
2022/10/17 09:15:26;;;;;;;;;;;20.20;71.90;;;;;;5059022;28;1276;-67
2022/10/17 09:17:53;;;;;;;;;;;20.20;71.90;;;;;;5060288;28;1321;-68
2022/10/17 09:20:26;;;;;;;;;;;20.20;71.90;;;;;;5057877;28;843;-68
2022/10/17 09:23:02;;;;;;;;;;;20.20;71.90;;;;;;5059129;28;1979;-68
2022/10/17 09:25:39;;;;;;;;;;;20.20;71.90;;;;;;5059012;28;1348;-68
2022/10/17 09:28:19;;;;;;;;;;;20.20;71.90;;;;;;5062429;28;965;-68
2022/10/17 09:30:49;;;;;;;;;;;20.20;71.80;;;;;;5058766;28;1855;-68
2022/10/17 09:33:15;;;;;;;;;;;20.20;71.90;;;;;;5059447;28;1383;-68
2022/10/17 09:35:41;;;;;;;;;;;20.20;71.90;;;;;;5056972;28;1940;-68
2022/10/17 09:38:20;;;;;;;;;;;20.20;71.90;;;;;;5057951;28;1328;-68
2022/10/17 09:40:49;;;;;;;;;;;20.20;71.90;;;;;;5059184;28;825;-68
2022/10/17 09:43:14;;;;;;;;;;;20.20;71.90;;;;;;5053809;28;1905;-68
2022/10/17 09:45:43;;;;;;;;;;;20.20;71.80;;;;;;5058900;28;1268;-68
2022/10/17 09:48:17;;;;;;;;;;;20.20;71.80;;;;;;5060899;28;926;-68
2022/10/17 09:50:43;;;;;;;;;;;20.20;71.80;;;;;;5058627;28;865;-69
2022/10/17 09:53:11;;;;;;;;;;;20.20;71.80;;;;;;5060052;28;946;-68
2022/10/17 09:55:44;;;;;;;;;;;20.20;71.90;;;;;;5058037;28;1323;-68
2022/10/17 09:58:09;;;;;;;;;;;20.20;71.80;;;;;;5058068;28;840;-69
2022/10/17 10:00:36;;;;;;;;;;;20.20;71.80;;;;;;5058945;28;1022;-69
2022/10/17 10:03:09;;;;;;;;;;;20.20;71.80;;;;;;5055454;28;1898;-68
2022/10/17 10:05:34;;;;;;;;;;;20.20;71.80;;;;;;5056664;28;1256;-68
2022/10/17 10:08:01;;;;;;;;;;;20.20;71.80;;;;;;5058043;28;1081;-68
2022/10/17 10:10:27;;;;;;;;;;;20.20;71.80;;;;;;5059300;28;890;-68
2022/10/17 10:13:03;;;;;;;;;;;20.20;71.90;;;;;;5066544;28;2396;-68
2022/10/17 10:15:29;;;;;;;;;;;20.20;71.80;;;;;;5061298;28;1327;-67
2022/10/17 10:17:55;;;;;;;;;;;20.30;72.10;;;;;;5060438;28;1258;-67
2022/10/17 10:20:25;;;;;;;;;;;20.30;70.90;;;;;;5066466;28;875;-68
2022/10/17 10:23:03;;;;;;;;;;;20.40;70.60;;;;;;5062751;28;2005;-67
2022/10/17 10:25:28;;;;;;;;;;;20.40;70.30;;;;;;5059394;28;1231;-68
2022/10/17 10:27:54;;;;;;;;;;;20.50;69.90;;;;;;5059613;28;875;-68
2022/10/17 10:30:29;;;;;;;;;;;20.50;69.20;;;;;;5057882;28;891;-68
2022/10/17 10:32:54;;;;;;;;;;;20.50;69.70;;;;;;5059955;28;875;-67
2022/10/17 10:35:21;;;;;;;;;;;20.50;68.80;;;;;;5056448;28;1356;-67
2022/10/17 10:37:56;;;;;;;;;;;20.60;68.60;;;;;;5063888;28;866;-67
2022/10/17 10:40:44;;;;;;;;;;;20.60;68.30;;;;;;5063868;28;1080;-68
2022/10/17 10:43:18;;;;;;;;;;;20.60;68.30;;;;;;5054779;28;1972;-68
2022/10/17 10:45:44;;;;;;;;;;;20.70;68.30;;;;;;5057503;28;1387;-67
2022/10/17 10:48:15;;;;;;;;;;;20.70;68.30;;;;;;5061210;28;1093;-68
2022/10/17 10:50:51;;;;;;;;;;;20.70;68.40;;;;;;5054707;28;1068;-67
2022/10/17 10:53:35;;;;;;;;;;;20.70;68.40;;;;;;5053208;28;1155;-67
2022/10/17 10:56:08;;;;;;;;;;;20.70;68.10;;;;;;5056106;28;1283;-66
2022/10/17 10:58:42;;;;;;;;;;;20.80;68.20;;;;;;5060005;28;1072;-67
2022/10/17 11:01:13;;;;;;;;;;;20.80;67.90;;;;;;5060400;28;874;-67
2022/10/17 11:03:49;;;;;;;;;;;20.80;67.30;;;;;;5059460;28;1910;-67
2022/10/17 11:06:22;;;;;;;;;;;20.80;66.50;;;;;;5057007;28;1379;-67
2022/10/17 11:08:49;;;;;;;;;;;20.80;66.50;;;;;;5058403;28;862;-67
2022/10/17 11:11:17;;;;;;;;;;;20.90;66.60;;;;;;5058107;28;930;-67
2022/10/17 11:13:45;;;;;;;;;;;20.90;66.80;;;;;;5058331;28;1391;-68
2022/10/17 11:16:15;;;;;;;;;;;20.90;66.40;;;;;;5060184;28;1366;-68
2022/10/17 11:18:45;;;;;;;;;;;20.90;66.50;;;;;;5057420;28;1333;-68
2022/10/17 11:21:14;;;;;;;;;;;20.90;65.70;;;;;;5054794;28;906;-68
2022/10/17 11:23:47;;;;;;;;;;;21.00;65.50;;;;;;5059641;28;1973;-68
2022/10/17 11:26:24;;;;;;;;;;;21.00;65.60;;;;;;5053392;28;1263;-68
2022/10/17 11:28:51;;;;;;;;;;;21.00;65.70;;;;;;5056452;28;894;-68
2022/10/17 11:31:16;;;;;;;;;;;21.00;66.00;;;;;;5062156;28;1369;-69
2022/10/17 11:33:53;;;;;;;;;;;21.00;65.30;;;;;;5058299;28;947;-68
2022/10/17 11:36:19;;;;;;;;;;;21.10;65.40;;;;;;5054846;28;1277;-68
2022/10/17 11:38:48;;;;;;;;;;;21.10;65.60;;;;;;5056885;28;859;-68
2022/10/17 11:41:25;;;;;;;;;;;21.10;65.50;;;;;;5059056;28;891;-68
2022/10/17 11:43:53;;;;;;;;;;;21.10;65.90;;;;;;5062821;28;1973;-68
2022/10/17 11:46:18;;;;;;;;;;;21.10;65.60;;;;;;5059647;28;1276;-69
2022/10/17 11:49:01;;;;;;;;;;;21.00;66.40;;;;;;5061874;28;883;-68
2022/10/17 11:51:26;;;;;;;;;;;21.10;65.80;;;;;;5063194;28;938;-68
2022/10/17 11:54:02;;;;;;;;;;;21.10;65.70;;;;;;5061960;28;856;-68
2022/10/17 11:56:39;;;;;;;;;;;21.10;65.70;;;;;;5061948;28;1362;-68
2022/10/17 11:59:12;;;;;;;;;;;21.10;65.80;;;;;;5061739;28;875;-68
2022/10/17 12:01:45;;;;;;;;;;;21.10;65.50;;;;;;5060449;28;832;-68
2022/10/17 12:04:14;;;;;;;;;;;21.10;65.60;;;;;;5060142;28;826;-68
2022/10/17 12:06:49;;;;;;;;;;;21.10;65.20;;;;;;5063543;28;1377;-68
2022/10/17 12:09:33;;;;;;;;;;;21.10;64.90;;;;;;5062042;28;1080;-67
2022/10/17 12:12:00;;;;;;;;;;;21.10;65.10;;;;;;5061912;28;1366;-67
2022/10/17 12:14:33;;;;;;;;;;;21.10;65.40;;;;;;5063672;28;1144;-67
2022/10/17 12:16:59;;;;;;;;;;;21.10;65.40;;;;;;5064278;28;1387;-67
2022/10/17 12:19:25;;;;;;;;;;;21.10;65.20;;;;;;5058360;28;946;-68
2022/10/17 12:21:54;;;;;;;;;;;21.10;65.00;;;;;;5058745;28;1891;-67
2022/10/17 12:24:39;;;;;;;;;;;21.20;65.30;;;;;;5059267;28;1018;-67
2022/10/17 12:27:20;;;;;;;;;;;21.20;65.10;;;;;;5057317;28;913;-68
2022/10/17 12:29:47;;;;;;;;;;;21.20;65.20;;;;;;5062934;28;966;-67
2022/10/17 12:32:12;;;;;;;;;;;21.20;65.20;;;;;;5063752;28;1362;-68
2022/10/17 12:34:38;;;;;;;;;;;21.20;65.40;;;;;;5060499;28;1334;-67
2022/10/17 12:37:03;;;;;;;;;;;21.20;65.20;;;;;;5059845;28;891;-68
2022/10/17 12:39:28;;;;;;;;;;;21.20;65.20;;;;;;5061409;28;867;-67
2022/10/17 12:41:54;;;;;;;;;;;21.20;65.20;;;;;;5061545;28;1898;-67
2022/10/17 12:44:20;;;;;;;;;;;21.20;65.40;;;;;;5059607;28;815;-68
2022/10/17 12:47:04;;;;;;;;;;;21.20;65.30;;;;;;5059882;28;1310;-67
2022/10/17 12:49:45;;;;;;;;;;;21.20;65.40;;;;;;5062908;28;1362;-68
2022/10/17 12:52:17;;;;;;;;;;;21.20;65.10;;;;;;5059214;28;891;-68
2022/10/17 12:54:44;;;;;;;;;;;21.20;64.90;;;;;;5048704;28;1618;-68
2022/10/17 12:57:33;;;;;;;;;;;21.20;64.60;;;;;;5056401;28;898;-68
2022/10/17 13:00:04;;;;;;;;;;;21.20;64.80;;;;;;5056730;28;1151;-68
2022/10/17 13:02:29;;;;;;;;;;;21.20;64.80;;;;;;5058735;28;1951;-68
2022/10/17 13:05:02;;;;;;;;;;;21.30;65.00;;;;;;5057198;28;1236;-68
2022/10/17 13:07:28;;;;;;;;;;;21.20;65.10;;;;;;5062315;28;1666;-68
2022/10/17 13:09:53;;;;;;;;;;;21.20;65.10;;;;;;5060050;28;863;-68
2022/10/17 13:12:21;;;;;;;;;;;21.30;65.20;;;;;;5062104;28;838;-68
2022/10/17 13:14:46;;;;;;;;;;;21.20;65.00;;;;;;5056428;28;1342;-68
2022/10/17 13:17:22;;;;;;;;;;;21.20;64.90;;;;;;5067418;28;1350;-68
2022/10/17 13:19:47;;;;;;;;;;;21.30;64.70;;;;;;5059626;28;1037;-69
2022/10/17 13:22:31;;;;;;;;;;;21.30;64.30;;;;;;5059877;28;2056;-70
2022/10/17 13:25:07;;;;;;;;;;;21.30;64.40;;;;;;5049031;28;1374;-70
2022/10/17 13:27:33;;;;;;;;;;;21.30;64.70;;;;;;5059411;28;971;-70
2022/10/17 13:29:59;;;;;;;;;;;21.30;64.90;;;;;;5061984;28;860;-70
2022/10/17 13:32:25;;;;;;;;;;;21.30;64.70;;;;;;5059764;28;1386;-71
2022/10/17 13:35:10;;;;;;;;;;;21.30;64.90;;;;;;5055970;28;1280;-70
2022/10/17 13:37:36;;;;;;;;;;;21.30;65.00;;;;;;5055368;28;887;-70
2022/10/17 13:40:02;;;;;;;;;;;21.30;64.80;;;;;;5058958;28;1034;-70
2022/10/17 13:42:35;;;;;;;;;;;21.30;64.80;;;;;;5060697;28;1905;-70
2022/10/17 13:45:00;;;;;;;;;;;21.30;64.90;;;;;;5056039;28;2476;-70
2022/10/17 13:47:27;;;;;;;;;;;21.30;64.90;;;;;;5057981;28;1156;-70
2022/10/17 13:49:52;;;;;;;;;;;21.30;64.60;;;;;;5062213;28;1275;-71
2022/10/17 13:52:18;;;;;;;;;;;21.30;64.50;;;;;;5060407;28;868;-71
2022/10/17 13:54:45;;;;;;;;;;;21.30;64.20;;;;;;5057278;28;1180;-70
2022/10/17 13:57:29;;;;;;;;;;;21.30;64.60;;;;;;5061808;28;890;-71
2022/10/17 14:00:05;;;;;;;;;;;21.40;63.80;;;;;;5057546;28;883;-70
2022/10/17 14:02:31;;;;;;;;;;;21.40;63.70;;;;;;5059894;28;1951;-71
2022/10/17 14:05:00;;;;;;;;;;;21.40;63.70;;;;;;5059151;28;1275;-70
2022/10/17 14:07:36;;;;;;;;;;;21.40;63.80;;;;;;5056835;28;883;-70
2022/10/17 14:10:05;;;;;;;;;;;21.40;63.90;;;;;;5053305;28;884;-70
2022/10/17 14:12:30;;;;;;;;;;;21.40;63.90;;;;;;5055584;28;925;-70
2022/10/17 14:14:56;;;;;;;;;;;21.40;64.00;;;;;;5059495;28;1254;-70
2022/10/17 14:17:21;;;;;;;;;;;21.40;64.00;;;;;;5058661;28;1283;-70
2022/10/17 14:19:49;;;;;;;;;;;21.40;64.70;;;;;;5057524;28;1030;-70
2022/10/17 14:22:33;;;;;;;;;;;21.40;63.80;;;;;;5063832;28;2089;-70
2022/10/17 14:24:59;;;;;;;;;;;21.40;63.90;;;;;;5058808;28;1275;-70
2022/10/17 14:27:26;;;;;;;;;;;21.40;64.00;;;;;;5055538;28;821;-70
2022/10/17 14:29:52;;;;;;;;;;;21.40;64.00;;;;;;5055753;28;872;-70
2022/10/17 14:32:18;;;;;;;;;;;21.40;64.20;;;;;;5058477;28;1460;-70
2022/10/17 14:34:45;;;;;;;;;;;21.40;64.20;;;;;;5058905;28;1355;-70
2022/10/17 14:37:11;;;;;;;;;;;21.40;64.20;;;;;;5061129;28;958;-70
2022/10/17 14:39:37;;;;;;;;;;;21.40;64.30;;;;;;5058739;28;836;-70
2022/10/17 14:42:02;;;;;;;;;;;21.40;64.40;;;;;;5060964;28;1914;-70